sensor_id;sensor_type;location;lat;lon;timestamp;P1;durP1;ratioP1;P2;durP2;ratioP2
40951;SDS011;26682;51.660;19.338;2022-08-21T00:01:42;17.95;;;15.05;;
40951;SDS011;26682;51.660;19.338;2022-08-21T00:03:28;21.27;;;14.80;;
40951;SDS011;26682;51.660;19.338;2022-08-21T00:05:15;22.40;;;14.90;;
40951;SDS011;26682;51.660;19.338;2022-08-21T00:07:02;22.48;;;15.05;;
40951;SDS011;26682;51.660;19.338;2022-08-21T00:08:48;15.43;;;13.73;;
40951;SDS011;26682;51.660;19.338;2022-08-21T00:10:33;16.02;;;12.20;;
40951;SDS011;26682;51.660;19.338;2022-08-21T00:12:19;14.57;;;12.13;;
40951;SDS011;26682;51.660;19.338;2022-08-21T00:14:06;15.88;;;11.63;;
40951;SDS011;26682;51.660;19.338;2022-08-21T00:15:53;16.33;;;11.80;;
40951;SDS011;26682;51.660;19.338;2022-08-21T00:17:39;16.58;;;11.52;;
40951;SDS011;26682;51.660;19.338;2022-08-21T00:19:25;14.45;;;10.38;;
40951;SDS011;26682;51.660;19.338;2022-08-21T00:21:12;14.50;;;10.48;;
40951;SDS011;26682;51.660;19.338;2022-08-21T00:23:01;13.65;;;10.60;;
40951;SDS011;26682;51.660;19.338;2022-08-21T00:24:47;14.63;;;10.27;;
40951;SDS011;26682;51.660;19.338;2022-08-21T00:26:33;14.32;;;9.30;;
40951;SDS011;26682;51.660;19.338;2022-08-21T00:28:19;11.73;;;9.57;;
40951;SDS011;26682;51.660;19.338;2022-08-21T00:30:05;14.25;;;9.85;;
40951;SDS011;26682;51.660;19.338;2022-08-21T00:31:52;13.98;;;10.23;;
40951;SDS011;26682;51.660;19.338;2022-08-21T00:33:38;16.25;;;9.57;;
40951;SDS011;26682;51.660;19.338;2022-08-21T00:35:26;14.05;;;10.27;;
40951;SDS011;26682;51.660;19.338;2022-08-21T00:37:13;15.65;;;10.43;;
40951;SDS011;26682;51.660;19.338;2022-08-21T00:39:00;15.25;;;10.02;;
40951;SDS011;26682;51.660;19.338;2022-08-21T00:40:48;14.75;;;9.77;;
40951;SDS011;26682;51.660;19.338;2022-08-21T00:42:39;15.25;;;9.80;;
40951;SDS011;26682;51.660;19.338;2022-08-21T00:44:25;17.83;;;9.95;;
40951;SDS011;26682;51.660;19.338;2022-08-21T00:46:11;12.63;;;10.15;;
40951;SDS011;26682;51.660;19.338;2022-08-21T00:47:57;16.98;;;11.05;;
40951;SDS011;26682;51.660;19.338;2022-08-21T00:49:43;16.95;;;10.88;;
40951;SDS011;26682;51.660;19.338;2022-08-21T00:51:38;13.63;;;10.27;;
40951;SDS011;26682;51.660;19.338;2022-08-21T00:53:28;11.90;;;10.13;;
40951;SDS011;26682;51.660;19.338;2022-08-21T00:55:16;13.95;;;10.15;;
40951;SDS011;26682;51.660;19.338;2022-08-21T00:57:05;14.90;;;10.32;;
40951;SDS011;26682;51.660;19.338;2022-08-21T00:58:56;16.63;;;10.43;;
40951;SDS011;26682;51.660;19.338;2022-08-21T01:00:46;15.30;;;10.23;;
40951;SDS011;26682;51.660;19.338;2022-08-21T01:02:33;18.52;;;10.50;;
40951;SDS011;26682;51.660;19.338;2022-08-21T01:04:19;15.32;;;10.07;;
40951;SDS011;26682;51.660;19.338;2022-08-21T01:06:07;17.45;;;10.98;;
40951;SDS011;26682;51.660;19.338;2022-08-21T01:07:54;13.75;;;10.23;;
40951;SDS011;26682;51.660;19.338;2022-08-21T01:09:42;13.32;;;9.57;;
40951;SDS011;26682;51.660;19.338;2022-08-21T01:11:31;16.35;;;10.32;;
40951;SDS011;26682;51.660;19.338;2022-08-21T01:13:17;15.25;;;10.82;;
40951;SDS011;26682;51.660;19.338;2022-08-21T01:15:04;14.48;;;9.77;;
40951;SDS011;26682;51.660;19.338;2022-08-21T01:16:52;17.02;;;10.57;;
40951;SDS011;26682;51.660;19.338;2022-08-21T01:18:39;14.60;;;10.35;;
40951;SDS011;26682;51.660;19.338;2022-08-21T01:20:26;14.77;;;11.15;;
40951;SDS011;26682;51.660;19.338;2022-08-21T01:22:13;16.63;;;10.68;;
40951;SDS011;26682;51.660;19.338;2022-08-21T01:23:58;16.02;;;10.23;;
40951;SDS011;26682;51.660;19.338;2022-08-21T01:25:44;13.68;;;10.50;;
40951;SDS011;26682;51.660;19.338;2022-08-21T01:27:30;14.82;;;10.65;;
40951;SDS011;26682;51.660;19.338;2022-08-21T01:29:39;12.65;;;10.07;;
40951;SDS011;26682;51.660;19.338;2022-08-21T01:31:32;15.45;;;9.77;;
40951;SDS011;26682;51.660;19.338;2022-08-21T01:33:20;17.63;;;10.07;;
40951;SDS011;26682;51.660;19.338;2022-08-21T01:35:09;13.40;;;9.85;;
40951;SDS011;26682;51.660;19.338;2022-08-21T01:36:56;15.77;;;9.35;;
40951;SDS011;26682;51.660;19.338;2022-08-21T01:38:42;11.77;;;9.85;;
40951;SDS011;26682;51.660;19.338;2022-08-21T01:40:28;13.60;;;9.60;;
40951;SDS011;26682;51.660;19.338;2022-08-21T01:42:14;12.88;;;9.50;;
40951;SDS011;26682;51.660;19.338;2022-08-21T01:44:00;17.50;;;10.13;;
40951;SDS011;26682;51.660;19.338;2022-08-21T01:45:46;13.13;;;8.98;;
40951;SDS011;26682;51.660;19.338;2022-08-21T01:47:32;13.75;;;10.02;;
40951;SDS011;26682;51.660;19.338;2022-08-21T01:49:19;13.88;;;9.50;;
40951;SDS011;26682;51.660;19.338;2022-08-21T01:51:05;16.67;;;9.00;;
40951;SDS011;26682;51.660;19.338;2022-08-21T01:52:51;12.20;;;9.02;;
40951;SDS011;26682;51.660;19.338;2022-08-21T01:54:37;14.38;;;9.23;;
40951;SDS011;26682;51.660;19.338;2022-08-21T01:56:24;12.68;;;7.82;;
40951;SDS011;26682;51.660;19.338;2022-08-21T01:58:11;12.13;;;8.90;;
40951;SDS011;26682;51.660;19.338;2022-08-21T01:59:57;15.15;;;8.65;;
40951;SDS011;26682;51.660;19.338;2022-08-21T02:01:43;12.75;;;8.48;;
40951;SDS011;26682;51.660;19.338;2022-08-21T02:03:29;10.98;;;8.65;;
40951;SDS011;26682;51.660;19.338;2022-08-21T02:05:15;13.65;;;9.45;;
40951;SDS011;26682;51.660;19.338;2022-08-21T02:07:01;11.73;;;8.27;;
40951;SDS011;26682;51.660;19.338;2022-08-21T02:08:48;16.50;;;9.75;;
40951;SDS011;26682;51.660;19.338;2022-08-21T02:10:35;14.40;;;9.18;;
40951;SDS011;26682;51.660;19.338;2022-08-21T02:12:21;15.43;;;9.80;;
40951;SDS011;26682;51.660;19.338;2022-08-21T02:14:08;11.43;;;9.05;;
40951;SDS011;26682;51.660;19.338;2022-08-21T02:15:54;11.75;;;8.60;;
40951;SDS011;26682;51.660;19.338;2022-08-21T02:17:48;12.13;;;9.75;;
40951;SDS011;26682;51.660;19.338;2022-08-21T02:19:37;10.68;;;9.57;;
40951;SDS011;26682;51.660;19.338;2022-08-21T02:21:23;17.98;;;9.90;;
40951;SDS011;26682;51.660;19.338;2022-08-21T02:23:10;14.18;;;9.65;;
40951;SDS011;26682;51.660;19.338;2022-08-21T02:24:57;12.88;;;9.60;;
40951;SDS011;26682;51.660;19.338;2022-08-21T02:26:43;11.75;;;9.52;;
40951;SDS011;26682;51.660;19.338;2022-08-21T02:28:29;14.35;;;9.32;;
40951;SDS011;26682;51.660;19.338;2022-08-21T02:30:16;15.77;;;10.55;;
40951;SDS011;26682;51.660;19.338;2022-08-21T02:32:04;12.50;;;9.65;;
40951;SDS011;26682;51.660;19.338;2022-08-21T02:33:50;15.32;;;10.13;;
40951;SDS011;26682;51.660;19.338;2022-08-21T02:35:37;13.60;;;9.73;;
40951;SDS011;26682;51.660;19.338;2022-08-21T02:37:27;15.38;;;10.02;;
40951;SDS011;26682;51.660;19.338;2022-08-21T02:39:13;14.25;;;9.63;;
40951;SDS011;26682;51.660;19.338;2022-08-21T02:40:59;11.77;;;9.93;;
40951;SDS011;26682;51.660;19.338;2022-08-21T02:42:45;12.10;;;9.90;;
40951;SDS011;26682;51.660;19.338;2022-08-21T02:44:31;15.68;;;9.68;;
40951;SDS011;26682;51.660;19.338;2022-08-21T02:46:18;15.77;;;10.60;;
40951;SDS011;26682;51.660;19.338;2022-08-21T02:48:10;15.95;;;10.10;;
40951;SDS011;26682;51.660;19.338;2022-08-21T02:49:59;11.32;;;9.57;;
40951;SDS011;26682;51.660;19.338;2022-08-21T02:51:44;14.40;;;9.88;;
40951;SDS011;26682;51.660;19.338;2022-08-21T02:53:31;13.55;;;9.82;;
40951;SDS011;26682;51.660;19.338;2022-08-21T02:55:18;13.48;;;10.32;;
40951;SDS011;26682;51.660;19.338;2022-08-21T02:57:07;14.57;;;10.57;;
40951;SDS011;26682;51.660;19.338;2022-08-21T02:58:53;11.55;;;9.98;;
40951;SDS011;26682;51.660;19.338;2022-08-21T03:00:40;14.95;;;10.55;;
40951;SDS011;26682;51.660;19.338;2022-08-21T03:02:26;12.38;;;10.15;;
40951;SDS011;26682;51.660;19.338;2022-08-21T03:04:12;11.95;;;10.48;;
40951;SDS011;26682;51.660;19.338;2022-08-21T03:05:58;16.05;;;10.85;;
40951;SDS011;26682;51.660;19.338;2022-08-21T03:07:45;14.90;;;10.60;;
40951;SDS011;26682;51.660;19.338;2022-08-21T03:09:32;14.52;;;11.38;;
40951;SDS011;26682;51.660;19.338;2022-08-21T03:11:18;14.55;;;11.57;;
40951;SDS011;26682;51.660;19.338;2022-08-21T03:13:05;15.05;;;11.07;;
40951;SDS011;26682;51.660;19.338;2022-08-21T03:14:52;15.85;;;11.10;;
40951;SDS011;26682;51.660;19.338;2022-08-21T03:16:38;14.40;;;10.95;;
40951;SDS011;26682;51.660;19.338;2022-08-21T03:18:24;13.93;;;11.05;;
40951;SDS011;26682;51.660;19.338;2022-08-21T03:20:11;18.48;;;11.73;;
40951;SDS011;26682;51.660;19.338;2022-08-21T03:21:59;14.13;;;11.13;;
40951;SDS011;26682;51.660;19.338;2022-08-21T03:23:45;13.35;;;11.00;;
40951;SDS011;26682;51.660;19.338;2022-08-21T03:25:32;14.63;;;11.67;;
40951;SDS011;26682;51.660;19.338;2022-08-21T03:27:19;18.17;;;12.38;;
40951;SDS011;26682;51.660;19.338;2022-08-21T03:29:05;18.27;;;12.30;;
40951;SDS011;26682;51.660;19.338;2022-08-21T03:30:53;15.73;;;11.57;;
40951;SDS011;26682;51.660;19.338;2022-08-21T03:32:39;17.35;;;11.93;;
40951;SDS011;26682;51.660;19.338;2022-08-21T03:34:26;14.18;;;11.57;;
40951;SDS011;26682;51.660;19.338;2022-08-21T03:36:12;14.88;;;11.65;;
40951;SDS011;26682;51.660;19.338;2022-08-21T03:37:58;15.57;;;11.27;;
40951;SDS011;26682;51.660;19.338;2022-08-21T03:39:44;15.98;;;11.70;;
40951;SDS011;26682;51.660;19.338;2022-08-21T03:41:30;22.58;;;11.60;;
40951;SDS011;26682;51.660;19.338;2022-08-21T03:43:16;15.77;;;12.13;;
40951;SDS011;26682;51.660;19.338;2022-08-21T03:45:02;17.20;;;12.75;;
40951;SDS011;26682;51.660;19.338;2022-08-21T03:46:49;18.35;;;11.93;;
40951;SDS011;26682;51.660;19.338;2022-08-21T03:48:36;17.23;;;11.55;;
40951;SDS011;26682;51.660;19.338;2022-08-21T03:50:24;15.15;;;13.18;;
40951;SDS011;26682;51.660;19.338;2022-08-21T03:52:11;13.27;;;11.88;;
40951;SDS011;26682;51.660;19.338;2022-08-21T03:53:57;15.25;;;12.07;;
40951;SDS011;26682;51.660;19.338;2022-08-21T03:55:46;13.68;;;12.13;;
40951;SDS011;26682;51.660;19.338;2022-08-21T03:57:35;16.23;;;11.90;;
40951;SDS011;26682;51.660;19.338;2022-08-21T03:59:20;14.05;;;12.30;;
40951;SDS011;26682;51.660;19.338;2022-08-21T04:01:06;14.60;;;11.60;;
40951;SDS011;26682;51.660;19.338;2022-08-21T04:02:52;18.65;;;12.23;;
40951;SDS011;26682;51.660;19.338;2022-08-21T04:04:38;14.82;;;12.15;;
40951;SDS011;26682;51.660;19.338;2022-08-21T04:06:24;16.23;;;11.52;;
40951;SDS011;26682;51.660;19.338;2022-08-21T04:08:12;14.23;;;11.63;;
40951;SDS011;26682;51.660;19.338;2022-08-21T04:09:59;16.55;;;11.90;;
40951;SDS011;26682;51.660;19.338;2022-08-21T04:11:45;15.40;;;12.00;;
40951;SDS011;26682;51.660;19.338;2022-08-21T04:13:32;13.90;;;12.13;;
40951;SDS011;26682;51.660;19.338;2022-08-21T04:15:18;14.23;;;12.23;;
40951;SDS011;26682;51.660;19.338;2022-08-21T04:17:05;18.37;;;12.30;;
40951;SDS011;26682;51.660;19.338;2022-08-21T04:18:52;13.70;;;12.13;;
40951;SDS011;26682;51.660;19.338;2022-08-21T04:20:38;15.63;;;12.63;;
40951;SDS011;26682;51.660;19.338;2022-08-21T04:22:25;15.18;;;11.63;;
40951;SDS011;26682;51.660;19.338;2022-08-21T04:24:12;18.83;;;12.65;;
40951;SDS011;26682;51.660;19.338;2022-08-21T04:25:58;12.75;;;11.55;;
40951;SDS011;26682;51.660;19.338;2022-08-21T04:27:43;18.70;;;12.65;;
40951;SDS011;26682;51.660;19.338;2022-08-21T04:29:31;15.77;;;12.40;;
40951;SDS011;26682;51.660;19.338;2022-08-21T04:33:04;15.68;;;11.95;;
40951;SDS011;26682;51.660;19.338;2022-08-21T04:34:50;17.52;;;12.65;;
40951;SDS011;26682;51.660;19.338;2022-08-21T04:36:42;14.75;;;11.90;;
40951;SDS011;26682;51.660;19.338;2022-08-21T04:38:28;18.17;;;12.15;;
40951;SDS011;26682;51.660;19.338;2022-08-21T04:42:03;17.67;;;12.77;;
40951;SDS011;26682;51.660;19.338;2022-08-21T04:43:52;14.65;;;12.10;;
40951;SDS011;26682;51.660;19.338;2022-08-21T04:45:41;14.38;;;12.90;;
40951;SDS011;26682;51.660;19.338;2022-08-21T04:47:29;20.50;;;12.27;;
40951;SDS011;26682;51.660;19.338;2022-08-21T04:49:15;14.30;;;12.35;;
40951;SDS011;26682;51.660;19.338;2022-08-21T04:52:47;18.17;;;13.32;;
40951;SDS011;26682;51.660;19.338;2022-08-21T04:54:33;17.80;;;12.45;;
40951;SDS011;26682;51.660;19.338;2022-08-21T04:56:33;14.63;;;12.32;;
40951;SDS011;26682;51.660;19.338;2022-08-21T04:58:22;18.23;;;12.80;;
40951;SDS011;26682;51.660;19.338;2022-08-21T05:00:11;20.70;;;13.68;;
40951;SDS011;26682;51.660;19.338;2022-08-21T05:01:59;14.63;;;13.13;;
40951;SDS011;26682;51.660;19.338;2022-08-21T05:03:46;22.73;;;13.10;;
40951;SDS011;26682;51.660;19.338;2022-08-21T05:05:34;15.20;;;13.55;;
40951;SDS011;26682;51.660;19.338;2022-08-21T05:07:22;16.63;;;13.60;;
40951;SDS011;26682;51.660;19.338;2022-08-21T05:09:14;15.90;;;13.45;;
40951;SDS011;26682;51.660;19.338;2022-08-21T05:11:02;20.95;;;13.63;;
40951;SDS011;26682;51.660;19.338;2022-08-21T05:12:49;17.70;;;12.57;;
40951;SDS011;26682;51.660;19.338;2022-08-21T05:14:34;15.20;;;12.05;;
40951;SDS011;26682;51.660;19.338;2022-08-21T05:16:20;16.58;;;11.88;;
40951;SDS011;26682;51.660;19.338;2022-08-21T05:18:06;18.25;;;12.07;;
40951;SDS011;26682;51.660;19.338;2022-08-21T05:19:53;15.23;;;11.80;;
40951;SDS011;26682;51.660;19.338;2022-08-21T05:21:40;21.38;;;11.32;;
40951;SDS011;26682;51.660;19.338;2022-08-21T05:23:28;17.45;;;11.98;;
40951;SDS011;26682;51.660;19.338;2022-08-21T05:25:13;13.18;;;9.80;;
40951;SDS011;26682;51.660;19.338;2022-08-21T05:27:01;14.75;;;11.18;;
40951;SDS011;26682;51.660;19.338;2022-08-21T05:28:47;14.10;;;10.20;;
40951;SDS011;26682;51.660;19.338;2022-08-21T05:30:33;12.38;;;9.80;;
40951;SDS011;26682;51.660;19.338;2022-08-21T05:32:19;13.10;;;9.97;;
40951;SDS011;26682;51.660;19.338;2022-08-21T05:34:06;12.75;;;10.43;;
40951;SDS011;26682;51.660;19.338;2022-08-21T05:35:52;11.45;;;10.23;;
40951;SDS011;26682;51.660;19.338;2022-08-21T05:37:42;13.05;;;10.40;;
40951;SDS011;26682;51.660;19.338;2022-08-21T05:39:28;14.70;;;11.73;;
40951;SDS011;26682;51.660;19.338;2022-08-21T05:41:14;14.25;;;10.25;;
40951;SDS011;26682;51.660;19.338;2022-08-21T05:43:00;13.75;;;10.07;;
40951;SDS011;26682;51.660;19.338;2022-08-21T05:44:46;13.63;;;10.15;;
40951;SDS011;26682;51.660;19.338;2022-08-21T05:46:32;14.13;;;9.82;;
40951;SDS011;26682;51.660;19.338;2022-08-21T05:48:20;12.65;;;9.73;;
40951;SDS011;26682;51.660;19.338;2022-08-21T05:50:07;11.48;;;9.07;;
40951;SDS011;26682;51.660;19.338;2022-08-21T05:51:54;13.30;;;8.75;;
40951;SDS011;26682;51.660;19.338;2022-08-21T05:53:40;10.23;;;9.18;;
40951;SDS011;26682;51.660;19.338;2022-08-21T05:55:28;11.45;;;9.00;;
40951;SDS011;26682;51.660;19.338;2022-08-21T05:57:14;12.43;;;9.25;;
40951;SDS011;26682;51.660;19.338;2022-08-21T05:59:00;9.63;;;8.60;;
40951;SDS011;26682;51.660;19.338;2022-08-21T06:00:46;10.45;;;8.48;;
40951;SDS011;26682;51.660;19.338;2022-08-21T06:02:33;10.93;;;8.85;;
40951;SDS011;26682;51.660;19.338;2022-08-21T06:04:19;13.18;;;8.98;;
40951;SDS011;26682;51.660;19.338;2022-08-21T06:06:05;12.02;;;8.73;;
40951;SDS011;26682;51.660;19.338;2022-08-21T06:07:51;13.07;;;8.80;;
40951;SDS011;26682;51.660;19.338;2022-08-21T06:09:37;10.88;;;8.60;;
40951;SDS011;26682;51.660;19.338;2022-08-21T06:11:24;13.30;;;9.27;;
40951;SDS011;26682;51.660;19.338;2022-08-21T06:13:10;10.85;;;8.73;;
40951;SDS011;26682;51.660;19.338;2022-08-21T06:14:56;13.38;;;8.90;;
40951;SDS011;26682;51.660;19.338;2022-08-21T06:16:43;12.32;;;8.63;;
40951;SDS011;26682;51.660;19.338;2022-08-21T06:18:29;18.42;;;9.50;;
40951;SDS011;26682;51.660;19.338;2022-08-21T06:20:15;13.32;;;9.07;;
40951;SDS011;26682;51.660;19.338;2022-08-21T06:22:01;10.30;;;9.18;;
40951;SDS011;26682;51.660;19.338;2022-08-21T06:23:47;12.07;;;9.48;;
40951;SDS011;26682;51.660;19.338;2022-08-21T06:25:33;12.65;;;8.95;;
40951;SDS011;26682;51.660;19.338;2022-08-21T06:27:19;13.98;;;9.75;;
40951;SDS011;26682;51.660;19.338;2022-08-21T06:29:05;12.20;;;9.45;;
40951;SDS011;26682;51.660;19.338;2022-08-21T06:30:51;9.75;;;7.93;;
40951;SDS011;26682;51.660;19.338;2022-08-21T06:32:37;9.10;;;8.15;;
40951;SDS011;26682;51.660;19.338;2022-08-21T06:34:23;10.15;;;8.57;;
40951;SDS011;26682;51.660;19.338;2022-08-21T06:36:09;11.50;;;8.88;;
40951;SDS011;26682;51.660;19.338;2022-08-21T06:37:58;13.48;;;8.38;;
40951;SDS011;26682;51.660;19.338;2022-08-21T06:39:44;14.48;;;8.85;;
40951;SDS011;26682;51.660;19.338;2022-08-21T06:41:30;13.10;;;9.57;;
40951;SDS011;26682;51.660;19.338;2022-08-21T06:43:16;13.27;;;9.20;;
40951;SDS011;26682;51.660;19.338;2022-08-21T06:45:02;12.88;;;9.27;;
40951;SDS011;26682;51.660;19.338;2022-08-21T06:46:49;12.87;;;8.33;;
40951;SDS011;26682;51.660;19.338;2022-08-21T06:48:35;11.82;;;8.70;;
40951;SDS011;26682;51.660;19.338;2022-08-21T06:50:21;12.35;;;8.48;;
40951;SDS011;26682;51.660;19.338;2022-08-21T06:52:08;12.80;;;8.32;;
40951;SDS011;26682;51.660;19.338;2022-08-21T06:53:55;10.50;;;8.18;;
40951;SDS011;26682;51.660;19.338;2022-08-21T06:55:41;13.70;;;7.85;;
40951;SDS011;26682;51.660;19.338;2022-08-21T06:57:27;12.25;;;7.70;;
40951;SDS011;26682;51.660;19.338;2022-08-21T06:59:13;14.15;;;8.57;;
40951;SDS011;26682;51.660;19.338;2022-08-21T07:00:59;9.68;;;8.50;;
40951;SDS011;26682;51.660;19.338;2022-08-21T07:02:45;12.75;;;8.23;;
40951;SDS011;26682;51.660;19.338;2022-08-21T07:04:31;10.23;;;8.77;;
40951;SDS011;26682;51.660;19.338;2022-08-21T07:06:17;13.40;;;8.40;;
40951;SDS011;26682;51.660;19.338;2022-08-21T07:08:03;10.90;;;8.77;;
40951;SDS011;26682;51.660;19.338;2022-08-21T07:09:49;17.13;;;8.38;;
40951;SDS011;26682;51.660;19.338;2022-08-21T07:11:35;13.55;;;9.43;;
40951;SDS011;26682;51.660;19.338;2022-08-21T07:13:22;12.13;;;8.73;;
40951;SDS011;26682;51.660;19.338;2022-08-21T07:15:08;14.90;;;8.40;;
40951;SDS011;26682;51.660;19.338;2022-08-21T07:18:42;15.45;;;8.75;;
40951;SDS011;26682;51.660;19.338;2022-08-21T07:20:28;10.13;;;7.68;;
40951;SDS011;26682;51.660;19.338;2022-08-21T07:22:15;9.93;;;8.13;;
40951;SDS011;26682;51.660;19.338;2022-08-21T07:24:06;11.30;;;8.23;;
40951;SDS011;26682;51.660;19.338;2022-08-21T07:25:52;9.57;;;7.40;;
40951;SDS011;26682;51.660;19.338;2022-08-21T07:27:38;11.35;;;7.93;;
40951;SDS011;26682;51.660;19.338;2022-08-21T07:29:24;13.07;;;8.00;;
40951;SDS011;26682;51.660;19.338;2022-08-21T07:31:10;13.27;;;7.47;;
40951;SDS011;26682;51.660;19.338;2022-08-21T07:32:59;9.18;;;7.13;;
40951;SDS011;26682;51.660;19.338;2022-08-21T07:34:45;10.38;;;6.88;;
40951;SDS011;26682;51.660;19.338;2022-08-21T07:36:32;10.85;;;7.05;;
40951;SDS011;26682;51.660;19.338;2022-08-21T07:38:17;11.98;;;7.28;;
40951;SDS011;26682;51.660;19.338;2022-08-21T07:40:04;10.77;;;7.22;;
40951;SDS011;26682;51.660;19.338;2022-08-21T07:41:50;9.07;;;6.80;;
40951;SDS011;26682;51.660;19.338;2022-08-21T07:43:36;9.45;;;6.30;;
40951;SDS011;26682;51.660;19.338;2022-08-21T07:45:22;8.27;;;6.45;;
40951;SDS011;26682;51.660;19.338;2022-08-21T07:47:09;8.80;;;6.30;;
40951;SDS011;26682;51.660;19.338;2022-08-21T07:48:55;10.50;;;6.95;;
40951;SDS011;26682;51.660;19.338;2022-08-21T07:52:29;8.33;;;6.63;;
40951;SDS011;26682;51.660;19.338;2022-08-21T07:54:15;9.27;;;6.50;;
40951;SDS011;26682;51.660;19.338;2022-08-21T07:56:01;7.97;;;6.60;;
40951;SDS011;26682;51.660;19.338;2022-08-21T07:57:49;10.27;;;7.05;;
40951;SDS011;26682;51.660;19.338;2022-08-21T07:59:35;10.63;;;6.40;;
40951;SDS011;26682;51.660;19.338;2022-08-21T08:01:21;9.55;;;5.40;;
40951;SDS011;26682;51.660;19.338;2022-08-21T08:03:07;6.05;;;5.13;;
40951;SDS011;26682;51.660;19.338;2022-08-21T08:04:53;8.48;;;5.80;;
40951;SDS011;26682;51.660;19.338;2022-08-21T08:06:40;6.55;;;5.75;;
40951;SDS011;26682;51.660;19.338;2022-08-21T08:08:26;8.13;;;6.00;;
40951;SDS011;26682;51.660;19.338;2022-08-21T08:10:12;7.40;;;5.55;;
40951;SDS011;26682;51.660;19.338;2022-08-21T08:11:58;7.60;;;5.57;;
40951;SDS011;26682;51.660;19.338;2022-08-21T08:13:45;9.60;;;6.05;;
40951;SDS011;26682;51.660;19.338;2022-08-21T08:15:35;6.68;;;5.85;;
40951;SDS011;26682;51.660;19.338;2022-08-21T08:17:21;8.30;;;6.05;;
40951;SDS011;26682;51.660;19.338;2022-08-21T08:19:08;8.93;;;6.10;;
40951;SDS011;26682;51.660;19.338;2022-08-21T08:20:55;8.43;;;6.03;;
40951;SDS011;26682;51.660;19.338;2022-08-21T08:22:41;7.30;;;5.65;;
40951;SDS011;26682;51.660;19.338;2022-08-21T08:26:14;7.10;;;5.78;;
40951;SDS011;26682;51.660;19.338;2022-08-21T08:28:00;10.65;;;6.05;;
40951;SDS011;26682;51.660;19.338;2022-08-21T08:31:34;13.95;;;6.00;;
40951;SDS011;26682;51.660;19.338;2022-08-21T08:33:21;6.50;;;5.20;;
40951;SDS011;26682;51.660;19.338;2022-08-21T08:35:08;6.68;;;5.35;;
40951;SDS011;26682;51.660;19.338;2022-08-21T08:36:54;9.13;;;5.25;;
40951;SDS011;26682;51.660;19.338;2022-08-21T08:38:43;6.88;;;5.43;;
40951;SDS011;26682;51.660;19.338;2022-08-21T08:40:51;7.47;;;5.28;;
40951;SDS011;26682;51.660;19.338;2022-08-21T08:42:53;5.55;;;5.05;;
40951;SDS011;26682;51.660;19.338;2022-08-21T08:44:42;8.30;;;5.22;;
40951;SDS011;26682;51.660;19.338;2022-08-21T08:46:38;9.32;;;5.68;;
40951;SDS011;26682;51.660;19.338;2022-08-21T08:51:12;9.63;;;6.20;;
40951;SDS011;26682;51.660;19.338;2022-08-21T08:53:04;8.52;;;5.95;;
40951;SDS011;26682;51.660;19.338;2022-08-21T08:54:58;7.10;;;5.90;;
40951;SDS011;26682;51.660;19.338;2022-08-21T08:56:51;9.07;;;5.75;;
40951;SDS011;26682;51.660;19.338;2022-08-21T08:58:40;9.50;;;5.80;;
40951;SDS011;26682;51.660;19.338;2022-08-21T09:00:30;11.13;;;5.70;;
40951;SDS011;26682;51.660;19.338;2022-08-21T09:02:17;10.13;;;6.10;;
40951;SDS011;26682;51.660;19.338;2022-08-21T09:04:04;12.95;;;5.57;;
40951;SDS011;26682;51.660;19.338;2022-08-21T09:05:56;6.82;;;5.38;;
40951;SDS011;26682;51.660;19.338;2022-08-21T09:08:14;9.20;;;6.07;;
40951;SDS011;26682;51.660;19.338;2022-08-21T09:10:10;13.50;;;5.88;;
40951;SDS011;26682;51.660;19.338;2022-08-21T09:11:59;7.18;;;5.78;;
40951;SDS011;26682;51.660;19.338;2022-08-21T09:13:52;8.88;;;5.45;;
40951;SDS011;26682;51.660;19.338;2022-08-21T09:16:09;8.35;;;5.72;;
40951;SDS011;26682;51.660;19.338;2022-08-21T09:18:14;9.68;;;5.78;;
40951;SDS011;26682;51.660;19.338;2022-08-21T09:22:19;9.13;;;6.57;;
40951;SDS011;26682;51.660;19.338;2022-08-21T09:24:17;12.50;;;6.05;;
40951;SDS011;26682;51.660;19.338;2022-08-21T09:26:07;7.03;;;5.60;;
40951;SDS011;26682;51.660;19.338;2022-08-21T09:28:07;9.45;;;5.97;;
40951;SDS011;26682;51.660;19.338;2022-08-21T09:29:56;10.57;;;6.30;;
40951;SDS011;26682;51.660;19.338;2022-08-21T09:31:44;9.50;;;6.57;;
40951;SDS011;26682;51.660;19.338;2022-08-21T09:33:30;6.40;;;5.80;;
40951;SDS011;26682;51.660;19.338;2022-08-21T09:35:17;9.65;;;6.45;;
40951;SDS011;26682;51.660;19.338;2022-08-21T09:37:05;7.80;;;5.95;;
40951;SDS011;26682;51.660;19.338;2022-08-21T09:39:03;8.80;;;6.45;;
40951;SDS011;26682;51.660;19.338;2022-08-21T09:40:54;13.82;;;6.32;;
40951;SDS011;26682;51.660;19.338;2022-08-21T09:42:53;9.63;;;5.95;;
40951;SDS011;26682;51.660;19.338;2022-08-21T09:44:41;8.25;;;5.53;;
40951;SDS011;26682;51.660;19.338;2022-08-21T09:48:18;9.23;;;5.55;;
40951;SDS011;26682;51.660;19.338;2022-08-21T09:50:11;13.20;;;6.05;;
40951;SDS011;26682;51.660;19.338;2022-08-21T09:52:04;7.72;;;5.70;;
40951;SDS011;26682;51.660;19.338;2022-08-21T09:55:51;6.22;;;5.63;;
40951;SDS011;26682;51.660;19.338;2022-08-21T09:58:05;7.32;;;5.07;;
40951;SDS011;26682;51.660;19.338;2022-08-21T09:59:52;7.85;;;5.43;;
40951;SDS011;26682;51.660;19.338;2022-08-21T10:01:42;8.60;;;5.30;;
40951;SDS011;26682;51.660;19.338;2022-08-21T10:03:29;8.00;;;5.55;;
40951;SDS011;26682;51.660;19.338;2022-08-21T10:05:17;10.60;;;5.40;;
40951;SDS011;26682;51.660;19.338;2022-08-21T10:07:10;7.63;;;6.03;;
40951;SDS011;26682;51.660;19.338;2022-08-21T10:09:18;8.32;;;5.45;;
40951;SDS011;26682;51.660;19.338;2022-08-21T10:11:09;8.63;;;5.40;;
40951;SDS011;26682;51.660;19.338;2022-08-21T10:15:13;6.97;;;5.13;;
40951;SDS011;26682;51.660;19.338;2022-08-21T10:19:29;8.75;;;5.38;;
40951;SDS011;26682;51.660;19.338;2022-08-21T10:21:38;8.57;;;4.93;;
40951;SDS011;26682;51.660;19.338;2022-08-21T10:23:51;8.48;;;4.97;;
40951;SDS011;26682;51.660;19.338;2022-08-21T10:27:44;7.63;;;4.97;;
40951;SDS011;26682;51.660;19.338;2022-08-21T10:29:39;6.22;;;5.00;;
40951;SDS011;26682;51.660;19.338;2022-08-21T10:33:45;6.82;;;4.63;;
40951;SDS011;26682;51.660;19.338;2022-08-21T10:35:44;6.80;;;4.72;;
40951;SDS011;26682;51.660;19.338;2022-08-21T10:44:01;6.20;;;4.38;;
40951;SDS011;26682;51.660;19.338;2022-08-21T10:47:57;8.95;;;4.30;;
40951;SDS011;26682;51.660;19.338;2022-08-21T10:54:28;10.45;;;4.45;;
40951;SDS011;26682;51.660;19.338;2022-08-21T10:56:32;13.13;;;5.00;;
40951;SDS011;26682;51.660;19.338;2022-08-21T11:00:17;6.88;;;4.07;;
40951;SDS011;26682;51.660;19.338;2022-08-21T11:02:10;6.75;;;4.63;;
40951;SDS011;26682;51.660;19.338;2022-08-21T11:06:12;5.95;;;4.43;;
40951;SDS011;26682;51.660;19.338;2022-08-21T11:08:15;6.30;;;4.07;;
40951;SDS011;26682;51.660;19.338;2022-08-21T11:10:10;6.57;;;3.92;;
40951;SDS011;26682;51.660;19.338;2022-08-21T11:12:10;6.70;;;4.35;;
40951;SDS011;26682;51.660;19.338;2022-08-21T11:14:09;7.18;;;4.03;;
40951;SDS011;26682;51.660;19.338;2022-08-21T11:16:18;6.15;;;3.85;;
40951;SDS011;26682;51.660;19.338;2022-08-21T11:22:38;5.28;;;4.15;;
40951;SDS011;26682;51.660;19.338;2022-08-21T11:24:50;4.38;;;3.65;;